sensor_id;sensor_type;location;lat;lon;timestamp;P1;durP1;ratioP1;P2;durP2;ratioP2
79403;SDS011;68858;48.642;9.142;2024-01-27T00:00:07;9.67;;;7.77;;
79403;SDS011;68858;48.642;9.142;2024-01-27T00:02:33;8.83;;;7.73;;
79403;SDS011;68858;48.642;9.142;2024-01-27T00:04:59;9.73;;;7.27;;
79403;SDS011;68858;48.642;9.142;2024-01-27T00:07:24;12.43;;;7.57;;
79403;SDS011;68858;48.642;9.142;2024-01-27T00:09:52;11.03;;;7.47;;
79403;SDS011;68858;48.642;9.142;2024-01-27T00:12:17;9.30;;;6.73;;
79403;SDS011;68858;48.642;9.142;2024-01-27T00:14:43;9.73;;;6.60;;
79403;SDS011;68858;48.642;9.142;2024-01-27T00:17:09;8.37;;;6.10;;
79403;SDS011;68858;48.642;9.142;2024-01-27T00:19:34;8.43;;;5.83;;
79403;SDS011;68858;48.642;9.142;2024-01-27T00:22:00;8.87;;;5.60;;
79403;SDS011;68858;48.642;9.142;2024-01-27T00:24:25;10.57;;;6.40;;
79403;SDS011;68858;48.642;9.142;2024-01-27T00:26:51;8.30;;;6.40;;
79403;SDS011;68858;48.642;9.142;2024-01-27T00:29:17;9.17;;;7.60;;
79403;SDS011;68858;48.642;9.142;2024-01-27T00:31:42;9.47;;;7.67;;
79403;SDS011;68858;48.642;9.142;2024-01-27T00:34:07;13.37;;;8.73;;
79403;SDS011;68858;48.642;9.142;2024-01-27T00:36:33;11.73;;;8.13;;
79403;SDS011;68858;48.642;9.142;2024-01-27T00:38:59;8.00;;;7.20;;
79403;SDS011;68858;48.642;9.142;2024-01-27T00:41:25;13.00;;;8.10;;
79403;SDS011;68858;48.642;9.142;2024-01-27T00:43:50;10.27;;;8.03;;
79403;SDS011;68858;48.642;9.142;2024-01-27T00:46:16;7.97;;;7.00;;
79403;SDS011;68858;48.642;9.142;2024-01-27T00:48:41;14.27;;;7.97;;
79403;SDS011;68858;48.642;9.142;2024-01-27T00:51:06;11.27;;;6.93;;
79403;SDS011;68858;48.642;9.142;2024-01-27T00:53:32;10.17;;;6.93;;
79403;SDS011;68858;48.642;9.142;2024-01-27T00:55:57;9.00;;;6.90;;
79403;SDS011;68858;48.642;9.142;2024-01-27T00:58:23;8.50;;;5.97;;
79403;SDS011;68858;48.642;9.142;2024-01-27T01:00:48;6.90;;;5.67;;
79403;SDS011;68858;48.642;9.142;2024-01-27T01:03:14;8.80;;;5.60;;
79403;SDS011;68858;48.642;9.142;2024-01-27T01:05:39;9.57;;;6.07;;
79403;SDS011;68858;48.642;9.142;2024-01-27T01:08:04;7.73;;;5.80;;
79403;SDS011;68858;48.642;9.142;2024-01-27T01:10:31;7.63;;;5.80;;
79403;SDS011;68858;48.642;9.142;2024-01-27T01:12:57;6.70;;;5.40;;
79403;SDS011;68858;48.642;9.142;2024-01-27T01:15:22;9.87;;;6.13;;
79403;SDS011;68858;48.642;9.142;2024-01-27T01:17:48;8.27;;;6.00;;
79403;SDS011;68858;48.642;9.142;2024-01-27T01:20:13;6.33;;;5.27;;
79403;SDS011;68858;48.642;9.142;2024-01-27T01:22:38;7.67;;;5.23;;
79403;SDS011;68858;48.642;9.142;2024-01-27T01:25:04;9.23;;;4.90;;
79403;SDS011;68858;48.642;9.142;2024-01-27T01:27:29;7.33;;;5.00;;
79403;SDS011;68858;48.642;9.142;2024-01-27T01:29:55;6.97;;;4.90;;
79403;SDS011;68858;48.642;9.142;2024-01-27T01:32:22;7.67;;;5.43;;
79403;SDS011;68858;48.642;9.142;2024-01-27T01:34:47;6.63;;;4.80;;
79403;SDS011;68858;48.642;9.142;2024-01-27T01:37:13;8.47;;;5.40;;
79403;SDS011;68858;48.642;9.142;2024-01-27T01:39:38;7.17;;;5.67;;
79403;SDS011;68858;48.642;9.142;2024-01-27T01:42:04;7.03;;;5.50;;
79403;SDS011;68858;48.642;9.142;2024-01-27T01:44:30;9.90;;;6.67;;
79403;SDS011;68858;48.642;9.142;2024-01-27T01:46:56;11.37;;;6.07;;
79403;SDS011;68858;48.642;9.142;2024-01-27T01:49:22;8.13;;;6.53;;
79403;SDS011;68858;48.642;9.142;2024-01-27T01:51:47;10.63;;;6.80;;
79403;SDS011;68858;48.642;9.142;2024-01-27T01:54:13;9.53;;;6.37;;
79403;SDS011;68858;48.642;9.142;2024-01-27T01:56:38;8.17;;;6.00;;
79403;SDS011;68858;48.642;9.142;2024-01-27T01:59:06;7.40;;;6.13;;
79403;SDS011;68858;48.642;9.142;2024-01-27T02:01:33;6.70;;;5.40;;
79403;SDS011;68858;48.642;9.142;2024-01-27T02:03:59;7.27;;;5.70;;
79403;SDS011;68858;48.642;9.142;2024-01-27T02:06:25;11.37;;;5.57;;
79403;SDS011;68858;48.642;9.142;2024-01-27T02:08:50;8.40;;;5.73;;
79403;SDS011;68858;48.642;9.142;2024-01-27T02:11:16;7.73;;;5.00;;
79403;SDS011;68858;48.642;9.142;2024-01-27T02:13:42;7.37;;;5.70;;
79403;SDS011;68858;48.642;9.142;2024-01-27T02:16:07;6.03;;;5.30;;
79403;SDS011;68858;48.642;9.142;2024-01-27T02:18:33;8.60;;;5.40;;
79403;SDS011;68858;48.642;9.142;2024-01-27T02:20:58;9.37;;;6.33;;
79403;SDS011;68858;48.642;9.142;2024-01-27T02:23:24;9.37;;;5.37;;
79403;SDS011;68858;48.642;9.142;2024-01-27T02:25:49;7.57;;;5.60;;
79403;SDS011;68858;48.642;9.142;2024-01-27T02:28:16;8.40;;;5.90;;
79403;SDS011;68858;48.642;9.142;2024-01-27T02:30:42;8.27;;;5.93;;
79403;SDS011;68858;48.642;9.142;2024-01-27T02:33:07;8.17;;;5.47;;
79403;SDS011;68858;48.642;9.142;2024-01-27T02:35:32;8.17;;;5.53;;
79403;SDS011;68858;48.642;9.142;2024-01-27T02:37:58;8.10;;;5.23;;
79403;SDS011;68858;48.642;9.142;2024-01-27T02:40:23;6.37;;;5.30;;
79403;SDS011;68858;48.642;9.142;2024-01-27T02:42:49;6.73;;;5.17;;
79403;SDS011;68858;48.642;9.142;2024-01-27T02:45:15;7.43;;;5.00;;
79403;SDS011;68858;48.642;9.142;2024-01-27T02:47:40;7.37;;;5.13;;
79403;SDS011;68858;48.642;9.142;2024-01-27T02:50:07;10.10;;;5.23;;
79403;SDS011;68858;48.642;9.142;2024-01-27T02:52:32;8.73;;;5.23;;
79403;SDS011;68858;48.642;9.142;2024-01-27T02:54:58;8.13;;;5.13;;
79403;SDS011;68858;48.642;9.142;2024-01-27T02:57:23;8.73;;;5.37;;
79403;SDS011;68858;48.642;9.142;2024-01-27T02:59:48;7.93;;;5.40;;
79403;SDS011;68858;48.642;9.142;2024-01-27T03:02:14;11.17;;;6.60;;
79403;SDS011;68858;48.642;9.142;2024-01-27T03:04:40;11.17;;;6.97;;
79403;SDS011;68858;48.642;9.142;2024-01-27T03:07:06;11.00;;;7.03;;
79403;SDS011;68858;48.642;9.142;2024-01-27T03:09:31;8.40;;;6.33;;
79403;SDS011;68858;48.642;9.142;2024-01-27T03:11:57;10.27;;;6.93;;
79403;SDS011;68858;48.642;9.142;2024-01-27T03:14:22;8.57;;;6.17;;
79403;SDS011;68858;48.642;9.142;2024-01-27T03:16:48;9.83;;;5.93;;
79403;SDS011;68858;48.642;9.142;2024-01-27T03:19:13;9.40;;;6.70;;
79403;SDS011;68858;48.642;9.142;2024-01-27T03:21:38;11.03;;;6.00;;
79403;SDS011;68858;48.642;9.142;2024-01-27T03:24:04;7.60;;;5.80;;
79403;SDS011;68858;48.642;9.142;2024-01-27T03:26:29;7.20;;;5.57;;
79403;SDS011;68858;48.642;9.142;2024-01-27T03:28:55;11.40;;;5.43;;
79403;SDS011;68858;48.642;9.142;2024-01-27T03:31:22;6.87;;;4.77;;
79403;SDS011;68858;48.642;9.142;2024-01-27T03:33:47;7.27;;;5.00;;
79403;SDS011;68858;48.642;9.142;2024-01-27T03:36:13;8.20;;;5.30;;
79403;SDS011;68858;48.642;9.142;2024-01-27T03:38:41;6.97;;;5.10;;
79403;SDS011;68858;48.642;9.142;2024-01-27T03:41:07;6.70;;;5.50;;
79403;SDS011;68858;48.642;9.142;2024-01-27T03:43:35;7.70;;;5.93;;
79403;SDS011;68858;48.642;9.142;2024-01-27T03:46:01;8.40;;;6.33;;
79403;SDS011;68858;48.642;9.142;2024-01-27T03:48:26;11.87;;;6.20;;
79403;SDS011;68858;48.642;9.142;2024-01-27T03:50:52;6.57;;;5.03;;
79403;SDS011;68858;48.642;9.142;2024-01-27T03:53:17;9.37;;;5.30;;
79403;SDS011;68858;48.642;9.142;2024-01-27T03:55:43;7.40;;;4.73;;
79403;SDS011;68858;48.642;9.142;2024-01-27T03:58:08;7.67;;;4.67;;
79403;SDS011;68858;48.642;9.142;2024-01-27T04:00:33;7.30;;;5.13;;
79403;SDS011;68858;48.642;9.142;2024-01-27T04:02:59;8.00;;;5.07;;
79403;SDS011;68858;48.642;9.142;2024-01-27T04:05:25;8.00;;;5.50;;
79403;SDS011;68858;48.642;9.142;2024-01-27T04:07:51;8.47;;;5.27;;
79403;SDS011;68858;48.642;9.142;2024-01-27T04:10:17;7.97;;;5.17;;
79403;SDS011;68858;48.642;9.142;2024-01-27T04:12:48;6.17;;;4.80;;
79403;SDS011;68858;48.642;9.142;2024-01-27T04:15:16;6.67;;;4.73;;
79403;SDS011;68858;48.642;9.142;2024-01-27T04:17:41;6.87;;;4.53;;
79403;SDS011;68858;48.642;9.142;2024-01-27T04:20:07;9.93;;;5.50;;
79403;SDS011;68858;48.642;9.142;2024-01-27T04:22:34;9.43;;;4.90;;
79403;SDS011;68858;48.642;9.142;2024-01-27T04:25:00;7.60;;;5.40;;
79403;SDS011;68858;48.642;9.142;2024-01-27T04:27:29;7.83;;;4.67;;
79403;SDS011;68858;48.642;9.142;2024-01-27T04:29:54;7.73;;;5.20;;
79403;SDS011;68858;48.642;9.142;2024-01-27T04:32:20;7.30;;;4.50;;
79403;SDS011;68858;48.642;9.142;2024-01-27T04:34:46;8.87;;;5.23;;
79403;SDS011;68858;48.642;9.142;2024-01-27T04:37:12;7.20;;;4.90;;
79403;SDS011;68858;48.642;9.142;2024-01-27T04:39:37;8.87;;;4.97;;
79403;SDS011;68858;48.642;9.142;2024-01-27T04:42:03;8.70;;;4.80;;
79403;SDS011;68858;48.642;9.142;2024-01-27T04:44:32;7.77;;;4.50;;
79403;SDS011;68858;48.642;9.142;2024-01-27T04:46:58;9.70;;;5.13;;
79403;SDS011;68858;48.642;9.142;2024-01-27T04:49:23;10.20;;;5.23;;
79403;SDS011;68858;48.642;9.142;2024-01-27T04:51:49;4.97;;;4.40;;
79403;SDS011;68858;48.642;9.142;2024-01-27T04:54:15;8.00;;;4.40;;
79403;SDS011;68858;48.642;9.142;2024-01-27T04:56:40;11.60;;;4.83;;
79403;SDS011;68858;48.642;9.142;2024-01-27T04:59:05;7.27;;;4.60;;
79403;SDS011;68858;48.642;9.142;2024-01-27T05:01:31;5.93;;;4.60;;
79403;SDS011;68858;48.642;9.142;2024-01-27T05:03:57;7.90;;;5.17;;
79403;SDS011;68858;48.642;9.142;2024-01-27T05:06:22;7.33;;;4.70;;
79403;SDS011;68858;48.642;9.142;2024-01-27T05:08:48;6.23;;;4.20;;
79403;SDS011;68858;48.642;9.142;2024-01-27T05:11:13;9.17;;;4.77;;
79403;SDS011;68858;48.642;9.142;2024-01-27T05:13:39;6.87;;;5.20;;
79403;SDS011;68858;48.642;9.142;2024-01-27T05:16:05;10.57;;;5.90;;
79403;SDS011;68858;48.642;9.142;2024-01-27T05:18:33;6.50;;;5.13;;
79403;SDS011;68858;48.642;9.142;2024-01-27T05:20:59;8.50;;;5.17;;
79403;SDS011;68858;48.642;9.142;2024-01-27T05:23:24;6.73;;;4.80;;
79403;SDS011;68858;48.642;9.142;2024-01-27T05:25:49;7.17;;;4.87;;
79403;SDS011;68858;48.642;9.142;2024-01-27T05:28:15;7.47;;;5.00;;
79403;SDS011;68858;48.642;9.142;2024-01-27T05:30:40;7.27;;;4.57;;
79403;SDS011;68858;48.642;9.142;2024-01-27T05:33:07;9.27;;;5.67;;
79403;SDS011;68858;48.642;9.142;2024-01-27T05:35:32;8.53;;;4.83;;
79403;SDS011;68858;48.642;9.142;2024-01-27T05:37:57;6.57;;;5.23;;
79403;SDS011;68858;48.642;9.142;2024-01-27T05:40:23;7.17;;;4.60;;
79403;SDS011;68858;48.642;9.142;2024-01-27T05:42:48;8.10;;;4.80;;
79403;SDS011;68858;48.642;9.142;2024-01-27T05:45:14;6.43;;;5.40;;
79403;SDS011;68858;48.642;9.142;2024-01-27T05:47:40;7.60;;;4.60;;
79403;SDS011;68858;48.642;9.142;2024-01-27T05:50:06;8.20;;;4.90;;
79403;SDS011;68858;48.642;9.142;2024-01-27T05:52:32;4.70;;;4.07;;
79403;SDS011;68858;48.642;9.142;2024-01-27T05:54:58;6.10;;;4.33;;
79403;SDS011;68858;48.642;9.142;2024-01-27T05:57:23;5.53;;;3.80;;
79403;SDS011;68858;48.642;9.142;2024-01-27T05:59:48;7.90;;;4.57;;
79403;SDS011;68858;48.642;9.142;2024-01-27T06:02:14;7.40;;;4.57;;
79403;SDS011;68858;48.642;9.142;2024-01-27T06:04:39;5.00;;;4.00;;
79403;SDS011;68858;48.642;9.142;2024-01-27T06:07:05;6.77;;;3.93;;
79403;SDS011;68858;48.642;9.142;2024-01-27T06:09:31;6.03;;;4.77;;
79403;SDS011;68858;48.642;9.142;2024-01-27T06:12:00;6.90;;;4.60;;
79403;SDS011;68858;48.642;9.142;2024-01-27T06:14:28;5.90;;;4.57;;
79403;SDS011;68858;48.642;9.142;2024-01-27T06:16:54;8.73;;;4.53;;
79403;SDS011;68858;48.642;9.142;2024-01-27T06:19:20;7.40;;;4.43;;
79403;SDS011;68858;48.642;9.142;2024-01-27T06:21:45;6.27;;;4.67;;
79403;SDS011;68858;48.642;9.142;2024-01-27T06:24:11;7.23;;;4.67;;
79403;SDS011;68858;48.642;9.142;2024-01-27T06:26:36;7.43;;;4.97;;
79403;SDS011;68858;48.642;9.142;2024-01-27T06:29:02;5.67;;;4.37;;
79403;SDS011;68858;48.642;9.142;2024-01-27T06:31:29;5.50;;;4.43;;
79403;SDS011;68858;48.642;9.142;2024-01-27T06:33:54;28.93;;;15.20;;
79403;SDS011;68858;48.642;9.142;2024-01-27T06:36:20;24.20;;;14.27;;
79403;SDS011;68858;48.642;9.142;2024-01-27T06:38:48;13.63;;;9.10;;
79403;SDS011;68858;48.642;9.142;2024-01-27T06:41:13;12.80;;;8.50;;
79403;SDS011;68858;48.642;9.142;2024-01-27T06:43:38;11.97;;;7.30;;
79403;SDS011;68858;48.642;9.142;2024-01-27T06:46:04;10.33;;;6.00;;
79403;SDS011;68858;48.642;9.142;2024-01-27T06:48:30;9.33;;;5.67;;
79403;SDS011;68858;48.642;9.142;2024-01-27T06:50:55;7.50;;;5.87;;
79403;SDS011;68858;48.642;9.142;2024-01-27T06:53:21;12.40;;;8.87;;
79403;SDS011;68858;48.642;9.142;2024-01-27T06:55:46;15.30;;;8.93;;
79403;SDS011;68858;48.642;9.142;2024-01-27T06:58:12;10.70;;;7.50;;
79403;SDS011;68858;48.642;9.142;2024-01-27T07:00:37;11.40;;;6.67;;
79403;SDS011;68858;48.642;9.142;2024-01-27T07:03:03;11.53;;;6.67;;
79403;SDS011;68858;48.642;9.142;2024-01-27T07:05:29;10.17;;;6.13;;
79403;SDS011;68858;48.642;9.142;2024-01-27T07:07:54;10.83;;;6.07;;
79403;SDS011;68858;48.642;9.142;2024-01-27T07:10:20;9.90;;;6.20;;
79403;SDS011;68858;48.642;9.142;2024-01-27T07:12:46;8.37;;;6.30;;
79403;SDS011;68858;48.642;9.142;2024-01-27T07:15:11;9.97;;;6.00;;
79403;SDS011;68858;48.642;9.142;2024-01-27T07:17:37;9.93;;;6.90;;
79403;SDS011;68858;48.642;9.142;2024-01-27T07:20:04;18.13;;;10.93;;
79403;SDS011;68858;48.642;9.142;2024-01-27T07:22:30;11.40;;;9.00;;
79403;SDS011;68858;48.642;9.142;2024-01-27T07:24:56;9.97;;;6.60;;
79403;SDS011;68858;48.642;9.142;2024-01-27T07:27:21;11.43;;;6.13;;
79403;SDS011;68858;48.642;9.142;2024-01-27T07:29:47;9.73;;;6.47;;
79403;SDS011;68858;48.642;9.142;2024-01-27T07:32:13;9.00;;;5.33;;
79403;SDS011;68858;48.642;9.142;2024-01-27T07:34:42;8.13;;;5.70;;
79403;SDS011;68858;48.642;9.142;2024-01-27T07:37:08;9.83;;;6.07;;
79403;SDS011;68858;48.642;9.142;2024-01-27T07:39:34;8.77;;;5.87;;
79403;SDS011;68858;48.642;9.142;2024-01-27T07:42:03;6.67;;;5.60;;
79403;SDS011;68858;48.642;9.142;2024-01-27T07:44:32;7.07;;;5.53;;
79403;SDS011;68858;48.642;9.142;2024-01-27T07:46:57;7.30;;;5.27;;
79403;SDS011;68858;48.642;9.142;2024-01-27T07:49:23;11.93;;;6.70;;
79403;SDS011;68858;48.642;9.142;2024-01-27T07:51:48;9.83;;;7.60;;
79403;SDS011;68858;48.642;9.142;2024-01-27T07:54:16;11.57;;;8.70;;
79403;SDS011;68858;48.642;9.142;2024-01-27T07:56:42;9.80;;;7.97;;
79403;SDS011;68858;48.642;9.142;2024-01-27T07:59:07;13.23;;;8.67;;
79403;SDS011;68858;48.642;9.142;2024-01-27T08:01:38;14.87;;;10.73;;
79403;SDS011;68858;48.642;9.142;2024-01-27T08:04:04;12.87;;;8.27;;
79403;SDS011;68858;48.642;9.142;2024-01-27T08:06:30;13.70;;;8.30;;
79403;SDS011;68858;48.642;9.142;2024-01-27T08:08:58;9.90;;;6.60;;
79403;SDS011;68858;48.642;9.142;2024-01-27T08:11:24;11.13;;;7.03;;
79403;SDS011;68858;48.642;9.142;2024-01-27T08:13:50;9.37;;;6.43;;
79403;SDS011;68858;48.642;9.142;2024-01-27T08:16:15;10.50;;;7.07;;
79403;SDS011;68858;48.642;9.142;2024-01-27T08:18:42;10.90;;;8.10;;
79403;SDS011;68858;48.642;9.142;2024-01-27T08:21:09;11.40;;;7.43;;
79403;SDS011;68858;48.642;9.142;2024-01-27T08:23:35;12.37;;;8.83;;
79403;SDS011;68858;48.642;9.142;2024-01-27T08:26:01;11.90;;;9.50;;
79403;SDS011;68858;48.642;9.142;2024-01-27T08:28:27;17.97;;;13.70;;
79403;SDS011;68858;48.642;9.142;2024-01-27T08:30:55;16.13;;;12.47;;
79403;SDS011;68858;48.642;9.142;2024-01-27T08:33:21;11.07;;;7.40;;
79403;SDS011;68858;48.642;9.142;2024-01-27T08:35:46;10.90;;;6.40;;
79403;SDS011;68858;48.642;9.142;2024-01-27T08:38:13;6.60;;;5.43;;
79403;SDS011;68858;48.642;9.142;2024-01-27T08:40:38;7.73;;;6.00;;
79403;SDS011;68858;48.642;9.142;2024-01-27T08:43:04;7.70;;;5.17;;
79403;SDS011;68858;48.642;9.142;2024-01-27T08:45:31;11.33;;;6.63;;
79403;SDS011;68858;48.642;9.142;2024-01-27T08:47:56;9.13;;;7.30;;
79403;SDS011;68858;48.642;9.142;2024-01-27T08:50:22;8.73;;;7.40;;
79403;SDS011;68858;48.642;9.142;2024-01-27T08:52:48;13.43;;;8.27;;
79403;SDS011;68858;48.642;9.142;2024-01-27T08:55:14;11.47;;;8.73;;
79403;SDS011;68858;48.642;9.142;2024-01-27T08:57:39;11.87;;;8.97;;
79403;SDS011;68858;48.642;9.142;2024-01-27T09:00:05;11.10;;;8.17;;
79403;SDS011;68858;48.642;9.142;2024-01-27T09:02:33;9.10;;;7.87;;
79403;SDS011;68858;48.642;9.142;2024-01-27T09:04:58;14.73;;;9.30;;
79403;SDS011;68858;48.642;9.142;2024-01-27T09:07:24;10.97;;;8.23;;
79403;SDS011;68858;48.642;9.142;2024-01-27T09:09:51;12.13;;;7.83;;
79403;SDS011;68858;48.642;9.142;2024-01-27T09:12:16;13.50;;;9.83;;
79403;SDS011;68858;48.642;9.142;2024-01-27T09:14:42;15.30;;;11.20;;
79403;SDS011;68858;48.642;9.142;2024-01-27T09:17:07;14.13;;;11.00;;
79403;SDS011;68858;48.642;9.142;2024-01-27T09:19:33;12.33;;;9.23;;
79403;SDS011;68858;48.642;9.142;2024-01-27T09:22:00;9.60;;;6.97;;
79403;SDS011;68858;48.642;9.142;2024-01-27T09:24:25;13.20;;;7.60;;
79403;SDS011;68858;48.642;9.142;2024-01-27T09:26:51;10.83;;;7.20;;
79403;SDS011;68858;48.642;9.142;2024-01-27T09:29:17;10.80;;;7.10;;
79403;SDS011;68858;48.642;9.142;2024-01-27T09:31:43;8.77;;;5.10;;
79403;SDS011;68858;48.642;9.142;2024-01-27T09:34:08;6.77;;;5.07;;
79403;SDS011;68858;48.642;9.142;2024-01-27T09:36:34;7.97;;;4.53;;
79403;SDS011;68858;48.642;9.142;2024-01-27T09:38:59;6.27;;;4.07;;
79403;SDS011;68858;48.642;9.142;2024-01-27T09:41:25;5.73;;;4.20;;
79403;SDS011;68858;48.642;9.142;2024-01-27T09:43:56;6.67;;;4.43;;
79403;SDS011;68858;48.642;9.142;2024-01-27T09:46:24;6.13;;;4.93;;
79403;SDS011;68858;48.642;9.142;2024-01-27T09:48:50;7.80;;;5.23;;
79403;SDS011;68858;48.642;9.142;2024-01-27T09:51:16;8.77;;;4.90;;
79403;SDS011;68858;48.642;9.142;2024-01-27T09:53:41;6.87;;;5.53;;
79403;SDS011;68858;48.642;9.142;2024-01-27T09:56:07;7.97;;;5.20;;
79403;SDS011;68858;48.642;9.142;2024-01-27T09:58:34;6.63;;;4.60;;
79403;SDS011;68858;48.642;9.142;2024-01-27T10:01:00;6.33;;;4.30;;
79403;SDS011;68858;48.642;9.142;2024-01-27T10:03:27;7.13;;;4.23;;
79403;SDS011;68858;48.642;9.142;2024-01-27T10:05:53;4.70;;;3.60;;
79403;SDS011;68858;48.642;9.142;2024-01-27T10:08:20;6.83;;;3.97;;
79403;SDS011;68858;48.642;9.142;2024-01-27T10:10:47;4.43;;;3.53;;
79403;SDS011;68858;48.642;9.142;2024-01-27T10:13:18;5.33;;;3.73;;
79403;SDS011;68858;48.642;9.142;2024-01-27T10:15:44;8.30;;;3.73;;
79403;SDS011;68858;48.642;9.142;2024-01-27T10:18:10;5.13;;;3.33;;
79403;SDS011;68858;48.642;9.142;2024-01-27T10:20:39;4.30;;;3.00;;
79403;SDS011;68858;48.642;9.142;2024-01-27T10:23:11;5.20;;;3.93;;
79403;SDS011;68858;48.642;9.142;2024-01-27T10:25:37;4.83;;;3.80;;
79403;SDS011;68858;48.642;9.142;2024-01-27T10:28:04;4.30;;;3.10;;
79403;SDS011;68858;48.642;9.142;2024-01-27T10:30:31;7.30;;;3.70;;
79403;SDS011;68858;48.642;9.142;2024-01-27T10:32:56;6.20;;;3.40;;
79403;SDS011;68858;48.642;9.142;2024-01-27T10:35:22;5.93;;;3.20;;
79403;SDS011;68858;48.642;9.142;2024-01-27T10:37:51;5.77;;;2.90;;
79403;SDS011;68858;48.642;9.142;2024-01-27T10:40:20;5.87;;;3.43;;
79403;SDS011;68858;48.642;9.142;2024-01-27T10:42:46;5.90;;;3.53;;
79403;SDS011;68858;48.642;9.142;2024-01-27T10:45:13;3.40;;;2.97;;
79403;SDS011;68858;48.642;9.142;2024-01-27T10:47:39;6.07;;;2.90;;
79403;SDS011;68858;48.642;9.142;2024-01-27T10:50:08;4.77;;;3.27;;
79403;SDS011;68858;48.642;9.142;2024-01-27T10:52:39;6.20;;;3.67;;
79403;SDS011;68858;48.642;9.142;2024-01-27T10:55:06;6.83;;;3.60;;
79403;SDS011;68858;48.642;9.142;2024-01-27T10:57:33;4.73;;;3.07;;
79403;SDS011;68858;48.642;9.142;2024-01-27T11:00:00;7.60;;;3.60;;
79403;SDS011;68858;48.642;9.142;2024-01-27T11:02:31;5.23;;;3.13;;
79403;SDS011;68858;48.642;9.142;2024-01-27T11:04:58;7.67;;;3.13;;
79403;SDS011;68858;48.642;9.142;2024-01-27T11:07:24;3.67;;;2.53;;
79403;SDS011;68858;48.642;9.142;2024-01-27T11:09:49;5.60;;;2.83;;
79403;SDS011;68858;48.642;9.142;2024-01-27T11:12:17;3.70;;;2.60;;
79403;SDS011;68858;48.642;9.142;2024-01-27T11:14:47;5.47;;;2.87;;
79403;SDS011;68858;48.642;9.142;2024-01-27T11:17:13;5.60;;;2.87;;
79403;SDS011;68858;48.642;9.142;2024-01-27T11:19:42;3.37;;;2.37;;
79403;SDS011;68858;48.642;9.142;2024-01-27T11:22:23;5.27;;;2.47;;
79403;SDS011;68858;48.642;9.142;2024-01-27T11:24:53;4.33;;;2.50;;
79403;SDS011;68858;48.642;9.142;2024-01-27T11:27:30;7.23;;;2.67;;
79403;SDS011;68858;48.642;9.142;2024-01-27T11:29:55;5.03;;;2.37;;
79403;SDS011;68858;48.642;9.142;2024-01-27T11:32:21;4.27;;;2.40;;
79403;SDS011;68858;48.642;9.142;2024-01-27T11:34:46;7.27;;;2.43;;
79403;SDS011;68858;48.642;9.142;2024-01-27T11:37:14;3.40;;;2.37;;
79403;SDS011;68858;48.642;9.142;2024-01-27T11:39:40;5.20;;;2.73;;
79403;SDS011;68858;48.642;9.142;2024-01-27T11:42:06;6.03;;;2.90;;
79403;SDS011;68858;48.642;9.142;2024-01-27T11:44:37;6.10;;;2.80;;
79403;SDS011;68858;48.642;9.142;2024-01-27T11:47:03;4.33;;;2.63;;
79403;SDS011;68858;48.642;9.142;2024-01-27T11:49:29;8.80;;;3.00;;
79403;SDS011;68858;48.642;9.142;2024-01-27T11:51:54;6.27;;;3.00;;
79403;SDS011;68858;48.642;9.142;2024-01-27T11:54:20;5.27;;;3.00;;
79403;SDS011;68858;48.642;9.142;2024-01-27T11:56:45;4.27;;;2.83;;
79403;SDS011;68858;48.642;9.142;2024-01-27T11:59:11;5.07;;;2.80;;
79403;SDS011;68858;48.642;9.142;2024-01-27T12:01:38;6.07;;;3.10;;
79403;SDS011;68858;48.642;9.142;2024-01-27T12:04:05;5.30;;;3.03;;
79403;SDS011;68858;48.642;9.142;2024-01-27T12:06:31;4.67;;;2.70;;
79403;SDS011;68858;48.642;9.142;2024-01-27T12:08:56;4.27;;;2.60;;
79403;SDS011;68858;48.642;9.142;2024-01-27T12:11:23;4.33;;;2.53;;
79403;SDS011;68858;48.642;9.142;2024-01-27T12:13:49;5.07;;;2.47;;
79403;SDS011;68858;48.642;9.142;2024-01-27T12:16:15;3.00;;;2.03;;
79403;SDS011;68858;48.642;9.142;2024-01-27T12:18:42;3.53;;;2.07;;
79403;SDS011;68858;48.642;9.142;2024-01-27T12:21:08;3.77;;;2.20;;
79403;SDS011;68858;48.642;9.142;2024-01-27T12:26:24;4.20;;;2.20;;
79403;SDS011;68858;48.642;9.142;2024-01-27T12:28:50;4.40;;;1.70;;
79403;SDS011;68858;48.642;9.142;2024-01-27T12:31:16;3.67;;;2.10;;
79403;SDS011;68858;48.642;9.142;2024-01-27T12:33:52;4.93;;;2.10;;
79403;SDS011;68858;48.642;9.142;2024-01-27T12:36:20;2.60;;;1.70;;
79403;SDS011;68858;48.642;9.142;2024-01-27T12:39:07;3.13;;;1.40;;
79403;SDS011;68858;48.642;9.142;2024-01-27T12:41:32;3.03;;;1.50;;
79403;SDS011;68858;48.642;9.142;2024-01-27T12:44:00;2.23;;;1.50;;
79403;SDS011;68858;48.642;9.142;2024-01-27T12:46:28;2.60;;;1.60;;
79403;SDS011;68858;48.642;9.142;2024-01-27T12:48:53;4.17;;;1.80;;
79403;SDS011;68858;48.642;9.142;2024-01-27T12:51:19;2.83;;;1.87;;
79403;SDS011;68858;48.642;9.142;2024-01-27T12:53:45;3.63;;;1.77;;
79403;SDS011;68858;48.642;9.142;2024-01-27T12:56:10;6.07;;;2.13;;
79403;SDS011;68858;48.642;9.142;2024-01-27T12:58:38;2.70;;;1.57;;
79403;SDS011;68858;48.642;9.142;2024-01-27T13:01:04;3.30;;;1.60;;
79403;SDS011;68858;48.642;9.142;2024-01-27T13:03:29;2.83;;;1.83;;
79403;SDS011;68858;48.642;9.142;2024-01-27T13:05:55;3.87;;;1.83;;
79403;SDS011;68858;48.642;9.142;2024-01-27T13:08:21;3.33;;;1.80;;
79403;SDS011;68858;48.642;9.142;2024-01-27T13:10:47;2.80;;;1.97;;
79403;SDS011;68858;48.642;9.142;2024-01-27T13:13:18;4.93;;;2.37;;
79403;SDS011;68858;48.642;9.142;2024-01-27T13:15:44;3.70;;;2.10;;
79403;SDS011;68858;48.642;9.142;2024-01-27T13:18:10;4.37;;;2.33;;
79403;SDS011;68858;48.642;9.142;2024-01-27T13:20:35;3.77;;;2.20;;
79403;SDS011;68858;48.642;9.142;2024-01-27T13:23:02;2.90;;;2.03;;
79403;SDS011;68858;48.642;9.142;2024-01-27T13:25:28;3.27;;;1.73;;
79403;SDS011;68858;48.642;9.142;2024-01-27T13:27:53;3.73;;;1.60;;
79403;SDS011;68858;48.642;9.142;2024-01-27T13:30:19;3.67;;;1.63;;
79403;SDS011;68858;48.642;9.142;2024-01-27T13:32:44;2.23;;;1.80;;
79403;SDS011;68858;48.642;9.142;2024-01-27T13:35:12;3.30;;;1.70;;
79403;SDS011;68858;48.642;9.142;2024-01-27T13:37:37;3.83;;;1.93;;
79403;SDS011;68858;48.642;9.142;2024-01-27T13:40:03;2.73;;;1.70;;
79403;SDS011;68858;48.642;9.142;2024-01-27T13:42:30;2.70;;;1.90;;
79403;SDS011;68858;48.642;9.142;2024-01-27T13:44:56;3.93;;;2.00;;
79403;SDS011;68858;48.642;9.142;2024-01-27T13:47:22;2.80;;;1.77;;
79403;SDS011;68858;48.642;9.142;2024-01-27T13:49:47;4.93;;;2.37;;
79403;SDS011;68858;48.642;9.142;2024-01-27T13:52:13;4.00;;;2.20;;
79403;SDS011;68858;48.642;9.142;2024-01-27T13:54:38;5.47;;;2.20;;
79403;SDS011;68858;48.642;9.142;2024-01-27T13:57:03;4.40;;;2.40;;
79403;SDS011;68858;48.642;9.142;2024-01-27T13:59:29;3.43;;;2.23;;
79403;SDS011;68858;48.642;9.142;2024-01-27T14:01:55;3.60;;;2.10;;
79403;SDS011;68858;48.642;9.142;2024-01-27T14:04:24;4.93;;;2.37;;
79403;SDS011;68858;48.642;9.142;2024-01-27T14:06:50;2.00;;;1.80;;
79403;SDS011;68858;48.642;9.142;2024-01-27T14:09:16;3.17;;;2.07;;
79403;SDS011;68858;48.642;9.142;2024-01-27T14:11:41;2.93;;;2.30;;
79403;SDS011;68858;48.642;9.142;2024-01-27T14:14:08;4.13;;;2.70;;
79403;SDS011;68858;48.642;9.142;2024-01-27T14:16:33;5.27;;;2.80;;
79403;SDS011;68858;48.642;9.142;2024-01-27T14:18:59;3.27;;;2.47;;
79403;SDS011;68858;48.642;9.142;2024-01-27T14:21:24;4.33;;;2.37;;
79403;SDS011;68858;48.642;9.142;2024-01-27T14:23:51;3.80;;;2.20;;
79403;SDS011;68858;48.642;9.142;2024-01-27T14:26:23;3.87;;;2.40;;
79403;SDS011;68858;48.642;9.142;2024-01-27T14:28:48;3.63;;;2.73;;
79403;SDS011;68858;48.642;9.142;2024-01-27T14:31:14;4.30;;;2.60;;
79403;SDS011;68858;48.642;9.142;2024-01-27T14:33:42;5.43;;;3.10;;
79403;SDS011;68858;48.642;9.142;2024-01-27T14:36:07;5.17;;;3.60;;
79403;SDS011;68858;48.642;9.142;2024-01-27T14:38:37;4.47;;;3.00;;
79403;SDS011;68858;48.642;9.142;2024-01-27T14:41:04;4.37;;;3.00;;